Listerhav — ZDKC7 — position and weather

sailwx.info

Track history (hours):
 
Tides and Currents Weather Stations Pressure Air Temp Water Temp Dewpoint Dewpoint Depression Visibility Wind Speed Wind Dir Waves Ship Positions

Listerhav

Last reported at 2016-Jun-27 10:31 UTC. Time now 2016-Dec-08 14:26 UTC.
Position N 57°43' E 011°59'.
Warning: this ship's position is months out of date.

Length 88 m; draft 3.8 m.

Type: Ship. MMSI: 236591000.

Date/timePositionNaut miles runAvg speedWind from/ knotsBaromVisibWave heightAir tempDewpointWater temp
2016-Jun-27 10:31N 57°43' E 011°59'0 0.0
2016-Jun-27 09:33N 57°43' E 011°59'0 0.0
2016-Jun-27 08:33N 57°43' E 011°59'0 0.0
2016-Jun-27 07:33N 57°43' E 011°59'5 4.7
2016-Jun-27 06:33N 57°41' E 011°51'2 1.6
2016-Jun-27 05:32N 57°40' E 011°48'0 0.0
2016-Jun-27 04:32N 57°40' E 011°48'0 0.0
2016-Jun-27 03:32N 57°40' E 011°48'0 0.0
2016-Jun-27 02:32N 57°40' E 011°48'0 0.0
2016-Jun-27 01:32N 57°40' E 011°48'0 0.0
2016-Jun-27 00:32N 57°40' E 011°48'0 0.0
2016-Jun-26 23:32N 57°40' E 011°48'0 0.0
2016-Jun-26 22:32N 57°40' E 011°48'0 0.0
2016-Jun-26 21:32N 57°40' E 011°48'0 0.0
2016-Jun-26 20:32N 57°40' E 011°48'0 0.0
2016-Jun-26 19:32N 57°40' E 011°48'0 0.0
2016-Jun-26 18:32N 57°40' E 011°48'0 0.1
2016-Jun-26 17:32N 57°40' E 011°48'0 0.1
2016-Jun-26 16:32N 57°40' E 011°48'0 0.0
2016-Jun-26 15:32N 57°40' E 011°48'0 0.0
2016-Jun-26 14:32N 57°40' E 011°48'7 7.5
2016-Jun-26 13:33N 57°35' E 011°39'10 9.8
2016-Jun-26 12:33N 57°25' E 011°43'9 8.9
2016-Jun-26 11:33N 57°17' E 011°50'9 9.5
2016-Jun-26 10:34N 57°08' E 011°57'10 9.8
2016-Jun-26 09:33N 56°59' E 012°04'10 9.7
2016-Jun-26 08:32N 56°50' E 012°10'4010.1
2016-Jun-26 04:33N 56°11' E 012°29'1111.1
2016-Jun-26 03:33N 56°02' E 012°40'1110.7
2016-Jun-26 02:33N 55°51' E 012°44'1110.8
2016-Jun-26 01:33N 55°41' E 012°41'1111.0
2016-Jun-26 00:33N 55°30' E 012°43'1010.3
2016-Jun-25 23:34N 55°19' E 012°42'1010.2
2016-Jun-25 22:33N 55°15' E 012°58'1010.2
2016-Jun-25 21:34N 55°15' E 013°16'10 9.8
2016-Jun-25 20:34N 55°14' E 013°33'1010.2
2016-Jun-25 19:33N 55°14' E 013°51'1010.4
2016-Jun-25 18:33N 55°14' E 014°10'8 8.3
2016-Jun-25 17:33N 55°20' E 014°20'9 9.4
2016-Jun-25 16:33N 55°29' E 014°22'1010.3
2016-Jun-25 15:33N 55°38' E 014°30'1010.3
2016-Jun-25 14:33N 55°48' E 014°38'1010.1
2016-Jun-25 13:33N 55°57' E 014°45'10 9.8
2016-Jun-25 12:33N 56°06' E 014°52'4 3.9
2016-Jun-25 11:32N 56°10' E 014°52'0 0.0
2016-Jun-25 06:26N 56°10' E 014°52'0 0.0
2016-Jun-25 05:32N 56°10' E 014°52'0 0.0
2016-Jun-25 01:32N 56°10' E 014°52'0 0.0
2016-Jun-24 22:32N 56°10' E 014°52'0 0.0
2016-Jun-24 21:32N 56°10' E 014°52'0 0.0
2016-Jun-24 17:26N 56°10' E 014°52'0 0.0
2016-Jun-24 16:26N 56°10' E 014°52'0 0.0
2016-Jun-24 07:32N 56°10' E 014°52'0 0.0
2016-Jun-23 21:13N 56°10' E 014°52'0 0.0
2016-Jun-23 20:25N 56°10' E 014°52'0 0.0
2016-Jun-23 19:25N 56°10' E 014°52'0 0.0
2016-Jun-23 04:07N 56°10' E 014°52'0 0.0
2016-Jun-22 17:31N 56°10' E 014°52'0 0.0
2016-Jun-22 16:30N 56°10' E 014°52'0 0.0
2016-Jun-22 15:30N 56°10' E 014°52'0 0.0
2016-Jun-20 23:17N 56°10' E 014°52'0 0.0
2016-Jun-20 22:11N 56°10' E 014°52'0 0.0
2016-Jun-20 21:29N 56°10' E 014°52'  
Track history (hours):
 
Tides and Currents Weather Stations Pressure Air Temp Water Temp Dewpoint Dewpoint Depression Visibility Wind Speed Wind Dir Waves Ship Positions

Listerhav

Last reported at 2016-Jun-27 10:31 UTC. Time now 2016-Dec-08 14:26 UTC.
Position N 57°43' E 011°59'.
Warning: this ship's position is months out of date.

Length 88 m; draft 3.8 m.

Type: Ship. MMSI: 236591000.

Date/timePositionNaut miles runAvg speedWind from/ knotsBaromVisibWave heightAir tempDewpointWater temp
2016-Jun-27 10:31N 57°43' E 011°59'0 0.0
2016-Jun-27 09:33N 57°43' E 011°59'0 0.0
2016-Jun-27 08:33N 57°43' E 011°59'0 0.0
2016-Jun-27 07:33N 57°43' E 011°59'5 4.7
2016-Jun-27 06:33N 57°41' E 011°51'2 1.6
2016-Jun-27 05:32N 57°40' E 011°48'0 0.0
2016-Jun-27 04:32N 57°40' E 011°48'0 0.0
2016-Jun-27 03:32N 57°40' E 011°48'0 0.0
2016-Jun-27 02:32N 57°40' E 011°48'0 0.0
2016-Jun-27 01:32N 57°40' E 011°48'0 0.0
2016-Jun-27 00:32N 57°40' E 011°48'0 0.0
2016-Jun-26 23:32N 57°40' E 011°48'0 0.0
2016-Jun-26 22:32N 57°40' E 011°48'0 0.0
2016-Jun-26 21:32N 57°40' E 011°48'0 0.0
2016-Jun-26 20:32N 57°40' E 011°48'0 0.0
2016-Jun-26 19:32N 57°40' E 011°48'0 0.0
2016-Jun-26 18:32N 57°40' E 011°48'0 0.1
2016-Jun-26 17:32N 57°40' E 011°48'0 0.1
2016-Jun-26 16:32N 57°40' E 011°48'0 0.0
2016-Jun-26 15:32N 57°40' E 011°48'0 0.0
2016-Jun-26 14:32N 57°40' E 011°48'7 7.5
2016-Jun-26 13:33N 57°35' E 011°39'10 9.8
2016-Jun-26 12:33N 57°25' E 011°43'9 8.9
2016-Jun-26 11:33N 57°17' E 011°50'9 9.5
2016-Jun-26 10:34N 57°08' E 011°57'10 9.8
2016-Jun-26 09:33N 56°59' E 012°04'10 9.7
2016-Jun-26 08:32N 56°50' E 012°10'4010.1
2016-Jun-26 04:33N 56°11' E 012°29'1111.1
2016-Jun-26 03:33N 56°02' E 012°40'1110.7
2016-Jun-26 02:33N 55°51' E 012°44'1110.8
2016-Jun-26 01:33N 55°41' E 012°41'1111.0
2016-Jun-26 00:33N 55°30' E 012°43'1010.3
2016-Jun-25 23:34N 55°19' E 012°42'1010.2
2016-Jun-25 22:33N 55°15' E 012°58'1010.2
2016-Jun-25 21:34N 55°15' E 013°16'10 9.8
2016-Jun-25 20:34N 55°14' E 013°33'1010.2
2016-Jun-25 19:33N 55°14' E 013°51'1010.4
2016-Jun-25 18:33N 55°14' E 014°10'8 8.3
2016-Jun-25 17:33N 55°20' E 014°20'9 9.4
2016-Jun-25 16:33N 55°29' E 014°22'1010.3
2016-Jun-25 15:33N 55°38' E 014°30'1010.3
2016-Jun-25 14:33N 55°48' E 014°38'1010.1
2016-Jun-25 13:33N 55°57' E 014°45'10 9.8
2016-Jun-25 12:33N 56°06' E 014°52'4 3.9
2016-Jun-25 11:32N 56°10' E 014°52'0 0.0
2016-Jun-25 06:26N 56°10' E 014°52'0 0.0
2016-Jun-25 05:32N 56°10' E 014°52'0 0.0
2016-Jun-25 01:32N 56°10' E 014°52'0 0.0
2016-Jun-24 22:32N 56°10' E 014°52'0 0.0
2016-Jun-24 21:32N 56°10' E 014°52'0 0.0
2016-Jun-24 17:26N 56°10' E 014°52'0 0.0
2016-Jun-24 16:26N 56°10' E 014°52'0 0.0
2016-Jun-24 07:32N 56°10' E 014°52'0 0.0
2016-Jun-23 21:13N 56°10' E 014°52'0 0.0
2016-Jun-23 20:25N 56°10' E 014°52'0 0.0
2016-Jun-23 19:25N 56°10' E 014°52'0 0.0
2016-Jun-23 04:07N 56°10' E 014°52'0 0.0
2016-Jun-22 17:31N 56°10' E 014°52'0 0.0
2016-Jun-22 16:30N 56°10' E 014°52'0 0.0
2016-Jun-22 15:30N 56°10' E 014°52'0 0.0
2016-Jun-20 23:17N 56°10' E 014°52'0 0.0
2016-Jun-20 22:11N 56°10' E 014°52'0 0.0
2016-Jun-20 21:29N 56°10' E 014°52'  

Dump ship's entire track history